KBAK

Columbus Municipal Airport

Columbus, Indiana, USA
METAR KBAK 170245Z 29004KT 10SM OVC014 02/M01 A3016 RMK LAST
Observed Flight Rules
Nov-17 @ 02:45 UTC (6 hours ago) Marginal Visual Flight Rules
Wind Visibility Clouds
290° at 4 knots 10 miles
  • Overcast at 1,400' AGL
Temperatures Readings
Current 2°C / 36°F
Dewpoint -1°C / 30°F
Humidity 81%
Altimeter 30.16" Hg
Pressure 1021 hPa
Elevation 200
METAR KBAK 170245Z 29004KT 10SM OVC014 02/M01 A3016 RMK LAST
Observed Flight Rules
Nov-17 @ 02:45 UTC
(6 hours ago)
MVFR
Wind Visibility
290° at 4 knots 10 miles
Clouds
  • Overcast at 1,400' AGL
Temperature Dewpoint
2°C / 36°F -1°C / 30°F
Humidity Altimeter Pressure
81% 30.16" Hg 1021 hPa